createdAt,value
2023-02-18T00:00:53.247Z,59.68
2023-02-18T00:01:53.235Z,51.56
2023-02-18T00:02:53.277Z,53.82
2023-02-18T00:03:53.361Z,50.98
2023-02-18T00:04:53.229Z,54.39
2023-02-18T00:05:53.224Z,57.00
2023-02-18T00:06:53.204Z,57.10
2023-02-18T00:07:53.237Z,54.04
2023-02-18T00:08:53.223Z,54.26
2023-02-18T00:09:53.202Z,58.87
2023-02-18T00:10:53.209Z,56.82
2023-02-18T00:11:53.205Z,54.61
2023-02-18T00:12:53.168Z,57.89
2023-02-18T00:13:53.173Z,56.61
2023-02-18T00:14:53.145Z,51.28
2023-02-18T00:15:53.201Z,47.09
2023-02-18T00:16:53.227Z,47.73
2023-02-18T00:17:53.130Z,54.00
2023-02-18T00:18:53.120Z,51.59
2023-02-18T00:19:53.119Z,52.99
2023-02-18T00:20:53.122Z,50.14
2023-02-18T00:21:53.097Z,48.45
2023-02-18T00:22:53.071Z,53.91
2023-02-18T00:23:53.108Z,57.83
2023-02-18T00:24:53.175Z,51.50
2023-02-18T00:25:53.082Z,54.77
2023-02-18T00:26:53.180Z,55.26
2023-02-18T00:27:53.040Z,48.74
2023-02-18T00:28:53.077Z,54.52
2023-02-18T00:32:11.775Z,64.25
2023-02-18T00:33:12.835Z,47.70
2023-02-18T00:34:12.801Z,47.82
2023-02-18T00:35:12.763Z,55.90
2023-02-18T00:36:12.878Z,53.03
2023-02-18T00:37:12.784Z,49.04
2023-02-18T00:38:12.840Z,51.89
2023-02-18T00:39:12.813Z,48.98
2023-02-18T00:40:12.737Z,57.01
2023-02-18T00:41:12.725Z,55.37
2023-02-18T00:42:12.718Z,48.27
2023-02-18T00:43:44.605Z,57.49
2023-02-18T00:44:12.717Z,48.58
2023-02-18T00:45:12.685Z,52.29
2023-02-18T00:46:13.679Z,55.37
2023-02-18T00:47:12.695Z,59.25
2023-02-18T00:48:13.366Z,52.72
2023-02-18T00:49:12.831Z,54.73
2023-02-18T00:50:12.735Z,56.73
2023-02-18T00:51:13.607Z,50.08
2023-02-18T00:52:13.608Z,56.34
2023-02-18T00:53:12.653Z,48.74
2023-02-18T00:54:45.035Z,53.82
2023-02-18T00:55:44.656Z,56.63
2023-02-18T00:56:12.689Z,57.50
2023-02-18T00:57:12.607Z,61.65
2023-02-18T00:58:12.662Z,47.95
2023-02-18T00:59:12.639Z,49.10
2023-02-18T01:00:12.629Z,55.04
2023-02-18T01:01:12.667Z,57.67
2023-02-18T01:02:44.491Z,49.97
2023-02-18T01:03:12.590Z,51.79
2023-02-18T01:04:12.552Z,61.21
2023-02-18T01:05:12.567Z,50.24
2023-02-18T01:06:12.512Z,56.83
2023-02-18T01:07:12.534Z,53.37
2023-02-18T01:08:12.543Z,47.77
2023-02-18T01:09:44.448Z,53.40
2023-02-18T01:13:18.172Z,52.97
2023-02-18T01:14:17.135Z,52.33
2023-02-18T01:15:43.230Z,49.18
2023-02-18T01:16:11.679Z,57.76
2023-02-18T01:17:43.667Z,49.32
2023-02-18T01:18:11.251Z,47.51
2023-02-18T01:19:43.118Z,56.40
2023-02-18T01:20:11.228Z,48.80
2023-02-18T01:21:43.145Z,56.28
2023-02-18T01:22:11.192Z,62.92
2023-02-18T01:23:11.203Z,54.40
2023-02-18T01:24:11.212Z,61.19
2023-02-18T01:25:11.201Z,56.37
2023-02-18T01:26:11.539Z,50.37
2023-02-18T01:27:11.180Z,53.84
2023-02-18T01:28:11.175Z,55.05
2023-02-18T01:29:11.133Z,53.00
2023-02-18T01:30:11.197Z,56.13
2023-02-18T01:31:11.265Z,53.46
2023-02-18T01:32:11.202Z,46.90
2023-02-18T01:33:11.233Z,46.94
2023-02-18T01:34:11.116Z,50.71
2023-02-18T01:35:11.079Z,56.25
2023-02-18T01:36:11.343Z,58.73
2023-02-18T01:37:11.082Z,51.69
2023-02-18T01:38:11.070Z,46.55
2023-02-18T01:39:11.079Z,47.64
2023-02-18T01:40:11.026Z,54.13
2023-02-18T01:41:11.061Z,51.95
2023-02-18T01:42:11.031Z,46.14
2023-02-18T01:43:11.071Z,47.77
2023-02-18T01:44:11.024Z,55.48
2023-02-18T01:45:11.001Z,51.19
2023-02-18T01:46:11.236Z,57.34
2023-02-18T01:47:10.980Z,46.34
2023-02-18T01:48:11.007Z,45.33
2023-02-18T01:49:10.972Z,50.06
2023-02-18T01:50:10.949Z,50.30
2023-02-18T01:51:10.942Z,47.84
2023-02-18T01:52:11.003Z,48.84
2023-02-18T01:53:10.934Z,47.58
2023-02-18T01:54:10.952Z,45.90
2023-02-18T01:55:10.936Z,46.47
2023-02-18T01:56:10.929Z,50.42
2023-02-18T01:57:10.935Z,54.30
2023-02-18T01:58:11.200Z,54.40
2023-02-18T01:59:10.930Z,51.74
2023-02-18T02:00:10.904Z,54.94
2023-02-18T02:01:10.964Z,55.06
2023-02-18T02:02:10.916Z,55.41
2023-02-18T02:03:10.884Z,55.38
2023-02-18T02:04:10.887Z,53.26
2023-02-18T02:05:10.915Z,47.56
2023-02-18T02:06:10.831Z,47.23
2023-02-18T02:07:10.832Z,46.56
2023-02-18T02:08:10.829Z,52.64
2023-02-18T02:09:10.860Z,47.58
2023-02-18T02:10:10.796Z,52.15
2023-02-18T02:11:10.787Z,51.93
2023-02-18T02:12:10.811Z,52.14
2023-02-18T02:13:10.801Z,54.21
2023-02-18T02:14:10.809Z,54.04
2023-02-18T02:15:10.765Z,58.08
2023-02-18T02:16:11.093Z,49.64
2023-02-18T02:17:10.780Z,51.78
2023-02-18T02:18:10.733Z,46.36
2023-02-18T02:19:10.718Z,45.51
2023-02-18T02:20:10.807Z,50.85
2023-02-18T02:21:10.718Z,52.27
2023-02-18T02:22:10.717Z,45.81
2023-02-18T02:23:10.739Z,46.49
2023-02-18T02:24:10.784Z,51.71
2023-02-18T02:25:10.702Z,45.78
2023-02-18T02:26:10.679Z,46.35
2023-02-18T02:27:10.696Z,46.41
2023-02-18T02:28:10.671Z,46.47
2023-02-18T02:29:10.670Z,50.94
2023-02-18T02:30:10.648Z,46.40
2023-02-18T02:31:10.724Z,45.83
2023-02-18T02:32:10.647Z,45.48
2023-02-18T02:33:10.623Z,45.39
2023-02-18T02:34:10.619Z,47.78
2023-02-18T02:35:10.614Z,55.79
2023-02-18T02:36:10.634Z,46.00
2023-02-18T02:37:10.709Z,50.00
2023-02-18T02:38:10.672Z,46.84
2023-02-18T02:39:10.578Z,51.53
2023-02-18T02:40:10.570Z,46.98
2023-02-18T02:41:10.594Z,54.05
2023-02-18T02:42:10.622Z,56.24
2023-02-18T02:43:10.576Z,48.39
2023-02-18T02:44:10.596Z,52.52
2023-02-18T02:45:10.574Z,45.13
2023-02-18T02:46:11.171Z,51.32
2023-02-18T02:47:10.543Z,53.12
2023-02-18T02:48:10.562Z,48.45
2023-02-18T02:49:10.597Z,50.00
2023-02-18T02:50:10.518Z,45.65
2023-02-18T02:51:10.512Z,54.12
2023-02-18T02:52:10.503Z,45.75
2023-02-18T02:53:10.503Z,45.22
2023-02-18T02:54:10.543Z,45.43
2023-02-18T02:55:10.488Z,51.69
2023-02-18T02:56:10.624Z,46.97
2023-02-18T02:57:10.478Z,50.43
2023-02-18T02:58:10.463Z,47.80
2023-02-18T02:59:10.473Z,56.15
2023-02-18T03:00:10.490Z,51.70
2023-02-18T03:01:10.447Z,45.58
2023-02-18T03:02:10.469Z,47.90
2023-02-18T03:03:10.451Z,45.90
2023-02-18T03:04:10.425Z,47.60
2023-02-18T03:05:10.416Z,45.55
2023-02-18T03:06:10.439Z,45.37
2023-02-18T03:07:10.399Z,49.96
2023-02-18T03:08:10.347Z,57.65
2023-02-18T03:09:10.373Z,46.24
2023-02-18T03:10:10.369Z,51.53
2023-02-18T03:11:10.341Z,46.36
2023-02-18T03:12:10.362Z,46.22
2023-02-18T03:13:10.326Z,46.10
2023-02-18T03:14:10.294Z,45.17
2023-02-18T03:15:10.345Z,45.08
2023-02-18T03:16:10.663Z,48.35
2023-02-18T03:17:10.309Z,44.88
2023-02-18T03:18:10.271Z,45.01
2023-02-18T03:19:10.251Z,50.29
2023-02-18T03:20:10.270Z,45.09
2023-02-18T03:21:10.281Z,45.03
2023-02-18T03:22:10.265Z,45.12
2023-02-18T03:23:10.239Z,49.44
2023-02-18T03:24:10.237Z,46.39
2023-02-18T03:25:10.298Z,45.43
2023-02-18T03:26:10.535Z,45.81
2023-02-18T03:27:10.281Z,47.19
2023-02-18T03:28:10.217Z,48.99
2023-02-18T03:29:10.193Z,47.86
2023-02-18T03:30:10.289Z,48.35
2023-02-18T03:31:10.263Z,45.18
2023-02-18T03:32:10.318Z,50.29
2023-02-18T03:33:10.183Z,50.23
2023-02-18T03:34:10.225Z,45.46
2023-02-18T03:35:10.152Z,54.05
2023-02-18T03:36:10.433Z,45.65
2023-02-18T03:37:10.135Z,50.73
2023-02-18T03:38:10.144Z,45.96
2023-02-18T03:39:10.148Z,46.88
2023-02-18T03:40:10.141Z,46.28
2023-02-18T03:41:10.132Z,50.58
2023-02-18T03:42:10.102Z,50.42
2023-02-18T03:43:10.118Z,53.42
2023-02-18T03:44:10.108Z,51.67
2023-02-18T03:45:10.075Z,49.83
2023-02-18T03:46:42.002Z,52.16
2023-02-18T04:04:00.117Z,47.92
2023-02-18T04:04:59.982Z,47.48
2023-02-18T04:05:59.979Z,54.74
2023-02-18T04:07:01.183Z,45.38
2023-02-18T04:08:01.106Z,50.84
2023-02-18T04:09:01.078Z,45.13
2023-02-18T04:10:01.089Z,51.18
2023-02-18T04:11:01.117Z,47.48
2023-02-18T04:12:01.085Z,51.99
2023-02-18T04:13:01.090Z,51.42
2023-02-18T04:14:01.078Z,56.52
2023-02-18T04:15:02.034Z,52.64
2023-02-18T04:16:01.042Z,53.28
2023-02-18T04:17:01.669Z,57.22
2023-02-18T04:18:01.006Z,60.38
2023-02-18T04:19:01.006Z,47.11
2023-02-18T04:20:01.232Z,45.25
2023-02-18T04:21:00.977Z,55.16
2023-02-18T04:22:00.965Z,58.81
2023-02-18T04:23:00.990Z,59.25
2023-02-18T04:24:01.006Z,49.52
2023-02-18T04:25:00.953Z,61.14
2023-02-18T04:26:00.950Z,47.52
2023-02-18T04:27:00.926Z,46.68
2023-02-18T04:28:00.947Z,56.65
2023-02-18T04:29:00.922Z,54.09
2023-02-18T04:30:01.031Z,55.87
2023-02-18T04:31:00.992Z,46.29
2023-02-18T04:32:00.961Z,51.23
2023-02-18T04:33:00.890Z,52.58
2023-02-18T04:34:00.884Z,59.97
2023-02-18T04:35:00.894Z,59.10
2023-02-18T04:36:00.914Z,63.41
2023-02-18T04:37:00.875Z,56.79
2023-02-18T04:38:00.871Z,60.54
2023-02-18T04:39:00.875Z,59.83
2023-02-18T04:40:00.946Z,55.23
2023-02-18T04:41:00.900Z,56.16
2023-02-18T04:42:00.872Z,52.84
2023-02-18T04:43:00.880Z,58.41
2023-02-18T04:44:00.858Z,48.08
2023-02-18T04:45:00.811Z,53.79
2023-02-18T04:46:00.870Z,59.36
2023-02-18T04:47:00.798Z,59.14
2023-02-18T04:48:00.794Z,49.10
2023-02-18T04:49:00.790Z,57.89
2023-02-18T04:50:00.785Z,55.14
2023-02-18T04:51:00.783Z,46.04
2023-02-18T04:52:00.766Z,55.57
2023-02-18T04:53:00.743Z,56.45
2023-02-18T04:54:00.787Z,51.83
2023-02-18T04:55:00.782Z,53.77
2023-02-18T04:56:00.745Z,55.19
2023-02-18T04:57:00.771Z,56.79
2023-02-18T04:58:00.731Z,62.16
2023-02-18T04:59:00.701Z,60.49
2023-02-18T05:00:00.689Z,51.33
2023-02-18T05:01:00.764Z,48.00
2023-02-18T05:02:00.661Z,52.45
2023-02-18T05:03:01.529Z,54.61
2023-02-18T05:04:00.706Z,49.74
2023-02-18T05:05:00.661Z,51.30
2023-02-18T05:06:00.631Z,53.26
2023-02-18T05:07:00.629Z,60.33
2023-02-18T05:08:00.642Z,55.66
2023-02-18T05:09:00.649Z,47.52
2023-02-18T05:10:00.620Z,55.23
2023-02-18T05:11:00.627Z,56.78
2023-02-18T05:12:00.601Z,51.77
2023-02-18T05:13:00.604Z,57.45
2023-02-18T05:14:00.628Z,57.89
2023-02-18T05:15:00.588Z,57.81
2023-02-18T05:16:00.680Z,48.67
2023-02-18T05:17:00.569Z,50.60
2023-02-18T05:18:00.535Z,58.54
2023-02-18T05:19:00.577Z,57.94
2023-02-18T05:20:00.548Z,55.75
2023-02-18T05:21:00.537Z,58.89
2023-02-18T05:22:00.511Z,54.65
2023-02-18T05:23:00.526Z,55.53
2023-02-18T05:24:00.528Z,55.16
2023-02-18T05:25:00.515Z,52.86
2023-02-18T05:26:00.489Z,53.62
2023-02-18T05:27:00.489Z,58.82
2023-02-18T05:28:00.484Z,49.95
2023-02-18T05:29:00.457Z,49.87
2023-02-18T05:30:00.528Z,58.03
2023-02-18T05:31:00.550Z,60.84
2023-02-18T05:32:00.557Z,47.82
2023-02-18T05:33:00.444Z,53.48
2023-02-18T05:34:00.457Z,58.45
2023-02-18T05:35:00.433Z,57.25
2023-02-18T05:36:00.495Z,58.69
2023-02-18T05:37:00.429Z,54.12
2023-02-18T05:38:00.422Z,57.46
2023-02-18T05:39:00.462Z,51.69
2023-02-18T05:40:00.383Z,54.35
2023-02-18T05:41:00.377Z,50.91
2023-02-18T05:42:00.426Z,53.22
2023-02-18T05:43:00.364Z,55.13
2023-02-18T05:44:00.410Z,53.87
2023-02-18T05:45:00.350Z,61.78
2023-02-18T05:46:00.497Z,55.09
2023-02-18T05:47:00.345Z,63.77
2023-02-18T05:48:00.338Z,47.15
2023-02-18T05:49:00.342Z,54.17
2023-02-18T05:50:00.302Z,51.69
2023-02-18T05:51:00.314Z,56.47
2023-02-18T05:52:00.303Z,54.98
2023-02-18T05:53:00.288Z,58.28
2023-02-18T05:54:00.344Z,56.05
2023-02-18T05:55:00.264Z,51.77
2023-02-18T05:56:00.254Z,54.05
2023-02-18T05:57:00.327Z,54.11
2023-02-18T05:58:00.275Z,47.00
2023-02-18T05:59:00.326Z,57.03
2023-02-18T06:00:00.466Z,48.30
2023-02-18T06:01:01.268Z,48.79
2023-02-18T06:02:00.198Z,54.74
2023-02-18T06:03:00.331Z,57.36
2023-02-18T06:04:00.197Z,58.54
2023-02-18T06:05:00.233Z,58.65
2023-02-18T06:06:00.258Z,61.48
2023-02-18T06:07:00.165Z,57.93
2023-02-18T06:08:00.212Z,54.26
2023-02-18T06:09:00.162Z,53.04
2023-02-18T06:10:00.262Z,58.22
2023-02-18T06:11:00.153Z,59.37
2023-02-18T06:12:00.134Z,62.24
2023-02-18T06:13:00.162Z,64.70
2023-02-18T06:14:00.112Z,51.36
2023-02-18T06:15:00.175Z,61.13
2023-02-18T06:16:00.139Z,54.06
2023-02-18T06:17:00.111Z,57.38
2023-02-18T06:18:00.261Z,55.89
2023-02-18T06:19:00.134Z,58.65
2023-02-18T06:20:00.074Z,56.54
2023-02-18T06:21:04.149Z,56.10
2023-02-18T06:22:00.051Z,54.27
2023-02-18T06:23:00.021Z,58.36
2023-02-18T06:24:00.078Z,60.34
2023-02-18T06:25:00.017Z,62.77
2023-02-18T06:26:00.057Z,64.79
2023-02-18T06:27:00.058Z,66.64
2023-02-18T06:28:00.002Z,57.60
2023-02-18T06:29:00.013Z,61.25
2023-02-18T06:30:31.918Z,53.18
2023-02-18T06:31:00.121Z,64.87
2023-02-18T06:32:00.206Z,59.76
2023-02-18T06:32:59.941Z,61.28
2023-02-18T06:33:59.981Z,63.77
2023-02-18T06:34:59.915Z,61.35
2023-02-18T06:35:59.919Z,64.07
2023-02-18T06:37:01.302Z,63.90
2023-02-18T06:38:00.910Z,56.84
2023-02-18T06:38:59.896Z,60.41
2023-02-18T06:39:59.912Z,63.17
2023-02-18T06:40:59.886Z,64.30
2023-02-18T06:41:59.897Z,58.35
2023-02-18T06:42:59.872Z,60.36
2023-02-18T06:44:00.585Z,62.68
2023-02-18T06:45:00.748Z,59.75
2023-02-18T06:45:59.846Z,61.03
2023-02-18T06:46:59.869Z,63.81
2023-02-18T06:47:59.894Z,61.37
2023-02-18T06:48:59.813Z,60.61
2023-02-18T06:49:59.806Z,58.59
2023-02-18T06:50:59.797Z,64.22
2023-02-18T06:51:59.897Z,55.47
2023-02-18T06:52:59.829Z,54.48
2023-02-18T06:53:59.794Z,56.49
2023-02-18T06:54:59.768Z,60.79
2023-02-18T06:55:59.750Z,53.19
2023-02-18T06:56:59.784Z,57.93
2023-02-18T06:57:59.755Z,53.42
2023-02-18T06:58:59.813Z,58.58
2023-02-18T06:59:59.722Z,56.61
2023-02-18T07:00:59.738Z,53.98
2023-02-18T07:01:59.719Z,58.72
2023-02-18T07:02:59.729Z,53.14
2023-02-18T07:03:59.819Z,50.47
2023-02-18T07:04:59.728Z,62.57
2023-02-18T07:05:59.680Z,63.72
2023-02-18T07:06:59.687Z,60.44
2023-02-18T07:07:59.657Z,58.75
2023-02-18T07:08:59.689Z,61.32
2023-02-18T07:09:59.652Z,60.46
2023-02-18T07:10:59.671Z,56.80
2023-02-18T07:11:59.634Z,63.01
2023-02-18T07:12:59.630Z,58.41
2023-02-18T07:13:59.644Z,56.69
2023-02-18T07:14:59.634Z,64.80
2023-02-18T07:15:59.688Z,61.66
2023-02-18T07:16:59.608Z,58.29
2023-02-18T07:17:59.591Z,61.32
2023-02-18T07:18:59.589Z,62.86
2023-02-18T07:19:59.630Z,63.15
2023-02-18T07:20:59.585Z,57.76
2023-02-18T07:21:59.566Z,63.92
2023-02-18T07:22:59.552Z,60.94
2023-02-18T07:23:59.553Z,60.15
2023-02-18T07:24:59.557Z,63.31
2023-02-18T07:25:59.815Z,57.18
2023-02-18T07:27:00.134Z,58.69
2023-02-18T07:27:59.512Z,64.76
2023-02-18T07:28:59.551Z,63.05
2023-02-18T07:29:59.514Z,61.98
2023-02-18T07:30:59.567Z,61.60
2023-02-18T07:31:59.547Z,60.53
2023-02-18T07:32:59.479Z,66.13
2023-02-18T07:33:59.458Z,64.98
2023-02-18T07:34:59.459Z,59.27
2023-02-18T07:35:59.471Z,59.03
2023-02-18T07:37:00.224Z,61.94
2023-02-18T07:37:59.468Z,61.18
2023-02-18T07:38:59.416Z,66.16
2023-02-18T07:39:59.429Z,56.63
2023-02-18T07:40:59.415Z,60.87
2023-02-18T07:41:59.424Z,63.35
2023-02-18T07:42:59.434Z,62.59
2023-02-18T07:43:59.397Z,69.93
2023-02-18T07:44:59.400Z,54.15
2023-02-18T07:45:59.434Z,62.66
2023-02-18T07:46:59.371Z,65.21
2023-02-18T07:47:59.385Z,65.50
2023-02-18T07:48:59.362Z,60.64
2023-02-18T07:49:59.348Z,59.87
2023-02-18T07:50:59.338Z,65.11
2023-02-18T07:51:59.364Z,67.76
2023-02-18T07:52:59.377Z,67.91
2023-02-18T07:53:59.337Z,70.18
2023-02-18T07:54:59.322Z,61.68
2023-02-18T07:55:59.329Z,60.15
2023-02-18T07:56:59.281Z,67.74
2023-02-18T07:57:59.304Z,65.61
2023-02-18T07:58:59.271Z,60.58
2023-02-18T07:59:59.259Z,58.86
2023-02-18T08:00:59.271Z,63.71
2023-02-18T08:01:59.291Z,61.03
2023-02-18T08:02:59.293Z,69.13
2023-02-18T08:03:59.266Z,63.85
2023-02-18T08:04:59.287Z,63.49
2023-02-18T08:05:59.226Z,61.18
2023-02-18T08:06:59.209Z,67.16
2023-02-18T08:07:59.199Z,68.97
2023-02-18T08:08:59.282Z,67.21
2023-02-18T08:09:59.205Z,67.19
2023-02-18T08:11:01.049Z,62.91
2023-02-18T08:11:59.206Z,61.78
2023-02-18T08:12:59.155Z,70.20
2023-02-18T08:13:59.154Z,69.14
2023-02-18T08:14:59.170Z,63.85
2023-02-18T08:15:59.162Z,66.84
2023-02-18T08:16:59.203Z,65.31
2023-02-18T08:17:59.149Z,65.34
2023-02-18T08:18:59.133Z,63.58
2023-02-18T08:19:59.111Z,64.09
2023-02-18T08:21:00.108Z,68.73
2023-02-18T08:21:59.099Z,68.01
2023-02-18T08:22:59.088Z,68.15
2023-02-18T08:23:59.103Z,55.26
2023-02-18T08:24:59.106Z,68.83
2023-02-18T08:25:59.119Z,64.32
2023-02-18T08:27:01.077Z,66.95
2023-02-18T08:28:00.063Z,63.77
2023-02-18T08:28:59.050Z,65.87
2023-02-18T08:29:59.090Z,68.09
2023-02-18T08:30:59.103Z,62.40
2023-02-18T08:31:59.090Z,66.59
2023-02-18T08:32:59.018Z,67.68
2023-02-18T08:33:59.022Z,67.49
2023-02-18T08:34:59.000Z,59.62
2023-02-18T08:35:59.008Z,68.39
2023-02-18T08:36:58.984Z,68.59
2023-02-18T08:37:58.962Z,67.64
2023-02-18T08:38:59.594Z,66.56
2023-02-18T08:39:58.991Z,67.52
2023-02-18T08:40:58.972Z,70.87
2023-02-18T08:41:59.000Z,61.25
2023-02-18T08:42:59.994Z,63.92
2023-02-18T08:43:58.932Z,69.52
2023-02-18T08:44:58.934Z,64.96
2023-02-18T08:45:58.949Z,66.36
2023-02-18T08:46:58.909Z,66.28
2023-02-18T08:48:18.755Z,65.52
2023-02-18T08:48:59.931Z,70.42
2023-02-18T08:49:58.897Z,67.26
2023-02-18T08:50:58.899Z,69.88
2023-02-18T08:51:58.890Z,66.89
2023-02-18T08:52:58.852Z,67.27
2023-02-18T08:53:58.851Z,68.57
2023-02-18T08:54:58.845Z,66.76
2023-02-18T08:55:58.861Z,62.78
2023-02-18T08:56:58.861Z,69.00
2023-02-18T08:57:58.854Z,70.92
2023-02-18T08:58:58.818Z,69.04
2023-02-18T08:59:58.826Z,70.13
2023-02-18T09:00:58.825Z,68.40
2023-02-18T09:01:58.794Z,66.51
2023-02-18T09:02:58.841Z,66.24
2023-02-18T09:03:58.820Z,64.99
2023-02-18T09:04:58.761Z,57.68
2023-02-18T09:05:58.766Z,69.42
2023-02-18T09:06:58.764Z,65.01
2023-02-18T09:07:58.782Z,63.22
2023-02-18T09:08:58.768Z,60.24
2023-02-18T09:09:58.721Z,66.35
2023-02-18T09:10:59.755Z,71.29
2023-02-18T09:11:58.749Z,64.08
2023-02-18T09:12:58.760Z,63.76
2023-02-18T09:13:58.738Z,67.72
2023-02-18T09:14:58.693Z,67.40
2023-02-18T09:15:58.737Z,68.12
2023-02-18T09:16:58.710Z,67.04
2023-02-18T09:17:58.662Z,70.91
2023-02-18T09:18:58.726Z,67.48
2023-02-18T09:19:58.658Z,70.14
2023-02-18T09:20:58.644Z,66.40
2023-02-18T09:22:00.720Z,63.68
2023-02-18T09:22:59.656Z,63.53
2023-02-18T09:23:58.674Z,66.15
2023-02-18T09:24:58.636Z,69.19
2023-02-18T09:25:58.623Z,69.97
2023-02-18T09:26:58.591Z,65.57
2023-02-18T09:27:59.257Z,68.54
2023-02-18T09:28:58.586Z,63.70
2023-02-18T09:29:58.667Z,66.43
2023-02-18T09:30:58.655Z,65.32
2023-02-18T09:31:58.588Z,64.79
2023-02-18T09:32:58.608Z,70.60
2023-02-18T09:33:58.549Z,65.79
2023-02-18T09:34:58.542Z,62.06
2023-02-18T09:35:58.565Z,62.95
2023-02-18T09:36:58.528Z,66.90
2023-02-18T09:37:58.533Z,66.59
2023-02-18T09:38:58.601Z,69.12
2023-02-18T09:39:59.256Z,65.78
2023-02-18T09:40:58.509Z,68.20
2023-02-18T09:41:58.489Z,68.72
2023-02-18T09:42:58.461Z,69.90
2023-02-18T09:43:58.459Z,62.96
2023-02-18T09:44:58.446Z,67.35
2023-02-18T09:45:58.495Z,68.81
2023-02-18T09:46:58.517Z,65.75
2023-02-18T09:47:58.426Z,70.05
2023-02-18T09:48:58.415Z,67.24
2023-02-18T09:49:58.419Z,67.97
2023-02-18T09:50:58.403Z,67.36
2023-02-18T09:51:58.408Z,67.22
2023-02-18T09:52:58.423Z,68.75
2023-02-18T09:53:58.373Z,68.11
2023-02-18T09:54:58.364Z,68.88
2023-02-18T09:55:58.358Z,68.85
2023-02-18T09:56:58.366Z,69.43
2023-02-18T09:57:58.372Z,70.36
2023-02-18T09:58:58.338Z,66.78
2023-02-18T09:59:58.363Z,63.94
2023-02-18T10:00:58.335Z,60.01
2023-02-18T10:01:58.367Z,62.60
2023-02-18T10:02:58.343Z,70.10
2023-02-18T10:03:58.315Z,63.82
2023-02-18T10:04:58.312Z,64.46
2023-02-18T10:05:58.351Z,68.85
2023-02-18T10:06:58.333Z,67.98
2023-02-18T10:07:58.289Z,67.76
2023-02-18T10:08:58.279Z,64.18
2023-02-18T10:09:58.311Z,70.72
2023-02-18T10:10:58.291Z,66.69
2023-02-18T10:11:58.292Z,68.35
2023-02-18T10:12:58.227Z,67.92
2023-02-18T10:13:58.230Z,67.38
2023-02-18T10:14:58.257Z,65.91
2023-02-18T10:15:58.280Z,68.90
2023-02-18T10:16:58.234Z,67.18
2023-02-18T10:17:58.230Z,68.23
2023-02-18T10:18:58.232Z,67.35
2023-02-18T10:19:58.204Z,66.69
2023-02-18T10:20:58.339Z,62.98
2023-02-18T10:21:58.204Z,68.29
2023-02-18T10:22:58.185Z,65.49
2023-02-18T10:23:58.267Z,68.21
2023-02-18T10:24:59.220Z,68.85
2023-02-18T10:25:58.297Z,68.62
2023-02-18T10:26:58.133Z,68.84
2023-02-18T10:27:58.206Z,67.97
2023-02-18T10:28:58.111Z,64.81
2023-02-18T10:29:58.162Z,66.90
2023-02-18T10:30:58.223Z,66.12
2023-02-18T10:31:58.194Z,66.23
2023-02-18T10:32:58.123Z,64.27
2023-02-18T10:33:58.159Z,69.06
2023-02-18T10:35:00.256Z,64.02
2023-02-18T10:35:59.077Z,66.75
2023-02-18T10:36:58.057Z,60.36
2023-02-18T10:37:58.071Z,67.41
2023-02-18T10:38:58.083Z,67.48
2023-02-18T10:39:58.059Z,69.51
2023-02-18T10:40:59.888Z,67.99
2023-02-18T10:41:59.031Z,65.15
2023-02-18T10:42:58.071Z,65.75
2023-02-18T10:43:57.994Z,66.50
2023-02-18T10:44:58.003Z,67.28
2023-02-18T10:45:58.009Z,67.68
2023-02-18T10:46:58.015Z,69.95
2023-02-18T10:47:58.023Z,67.76
2023-02-18T10:48:57.983Z,63.96
2023-02-18T10:49:57.968Z,65.74
2023-02-18T10:50:57.956Z,67.31
2023-02-18T10:51:58.000Z,66.58
2023-02-18T10:52:57.983Z,60.09
2023-02-18T10:53:58.050Z,64.99
2023-02-18T10:54:57.933Z,67.76
2023-02-18T10:55:57.941Z,71.13
2023-02-18T10:56:57.929Z,65.90
2023-02-18T10:57:57.881Z,67.54
2023-02-18T10:58:57.872Z,66.32
2023-02-18T10:59:58.001Z,60.82
2023-02-18T11:00:57.883Z,68.69
2023-02-18T11:01:57.943Z,69.73
2023-02-18T11:02:57.858Z,60.53
2023-02-18T11:03:57.846Z,68.24
2023-02-18T11:04:57.890Z,68.10
2023-02-18T11:05:57.864Z,65.51
2023-02-18T11:06:57.941Z,68.86
2023-02-18T11:07:57.811Z,70.12
2023-02-18T11:08:57.810Z,71.27
2023-02-18T11:09:57.823Z,68.77
2023-02-18T11:10:57.791Z,68.50
2023-02-18T11:12:07.785Z,67.82
2023-02-18T11:12:59.770Z,67.38
2023-02-18T11:13:57.766Z,66.78
2023-02-18T11:14:57.792Z,65.99
2023-02-18T11:15:57.865Z,69.34
2023-02-18T11:16:57.737Z,69.86
2023-02-18T11:17:57.733Z,68.77
2023-02-18T11:18:57.742Z,65.60
2023-02-18T11:19:57.745Z,68.43
2023-02-18T11:20:57.716Z,64.35
2023-02-18T11:21:57.702Z,64.73
2023-02-18T11:22:57.714Z,68.52
2023-02-18T11:23:57.825Z,65.83
2023-02-18T11:24:57.718Z,62.86
2023-02-18T11:25:57.702Z,68.98
2023-02-18T11:26:57.663Z,60.44
2023-02-18T11:27:57.645Z,59.73
2023-02-18T11:28:57.672Z,65.66
2023-02-18T11:29:57.668Z,61.40
2023-02-18T11:30:57.696Z,68.39
2023-02-18T11:31:57.673Z,62.52
2023-02-18T11:32:57.625Z,64.15
2023-02-18T11:33:57.630Z,65.48
2023-02-18T11:34:57.629Z,69.55
2023-02-18T11:35:57.605Z,63.35
2023-02-18T11:36:58.285Z,65.96
2023-02-18T11:37:57.574Z,63.60
2023-02-18T11:38:57.591Z,63.18
2023-02-18T11:39:57.560Z,69.75
2023-02-18T11:40:57.585Z,64.61
2023-02-18T11:41:57.575Z,66.62
2023-02-18T11:42:57.527Z,67.37
2023-02-18T11:43:57.564Z,60.17
2023-02-18T11:44:57.530Z,59.91
2023-02-18T11:45:57.506Z,64.73
2023-02-18T11:46:57.547Z,61.30
2023-02-18T11:47:57.592Z,61.65
2023-02-18T11:48:57.538Z,69.08
2023-02-18T11:49:57.501Z,65.98
2023-02-18T11:50:57.484Z,65.87
2023-02-18T11:51:57.499Z,67.84
2023-02-18T11:52:57.514Z,61.52
2023-02-18T11:53:57.512Z,66.90
2023-02-18T11:54:58.404Z,67.33
2023-02-18T11:55:57.453Z,69.73
2023-02-18T11:56:57.474Z,70.02
2023-02-18T11:57:57.484Z,62.55
2023-02-18T11:58:57.426Z,67.99
2023-02-18T11:59:57.430Z,67.09
2023-02-18T12:00:57.428Z,67.21
2023-02-18T12:01:58.357Z,67.52
2023-02-18T12:02:57.395Z,66.15
2023-02-18T12:03:57.392Z,70.62
2023-02-18T12:04:58.391Z,63.00
2023-02-18T12:05:57.388Z,69.46
2023-02-18T12:06:57.359Z,66.95
2023-02-18T12:07:58.191Z,70.66
2023-02-18T12:08:57.359Z,66.95
2023-02-18T12:09:58.224Z,59.86
2023-02-18T12:10:57.356Z,66.67
2023-02-18T12:11:59.854Z,66.88
2023-02-18T12:12:58.311Z,68.96
2023-02-18T12:13:57.312Z,68.51
2023-02-18T12:14:57.332Z,64.52
2023-02-18T12:15:57.287Z,66.09
2023-02-18T12:16:57.320Z,71.24
2023-02-18T12:17:57.314Z,68.66
2023-02-18T12:18:57.426Z,71.92
2023-02-18T12:19:57.289Z,68.71
2023-02-18T12:20:57.253Z,67.21
2023-02-18T12:21:57.254Z,70.18
2023-02-18T12:22:57.813Z,66.39
2023-02-18T12:23:57.780Z,69.81
2023-02-18T12:24:57.261Z,66.64
2023-02-18T12:25:57.223Z,68.36
2023-02-18T12:26:57.239Z,69.96
2023-02-18T12:27:57.190Z,67.82
2023-02-18T12:29:29.602Z,69.12
2023-02-18T12:30:29.220Z,68.02
2023-02-18T12:30:57.187Z,67.97
2023-02-18T12:31:57.209Z,63.41
2023-02-18T12:32:57.248Z,72.35
2023-02-18T12:33:57.145Z,64.51
2023-02-18T12:34:57.133Z,70.13
2023-02-18T12:35:57.171Z,63.30
2023-02-18T12:36:57.143Z,64.24
2023-02-18T12:37:57.150Z,67.20
2023-02-18T12:38:57.121Z,65.41
2023-02-18T12:39:58.133Z,68.70
2023-02-18T12:40:57.275Z,65.73
2023-02-18T12:41:57.106Z,64.80
2023-02-18T12:42:57.093Z,65.97
2023-02-18T12:43:57.103Z,69.25
2023-02-18T12:44:57.080Z,68.76
2023-02-18T12:45:57.148Z,72.31
2023-02-18T12:46:57.094Z,66.31
2023-02-18T12:47:57.034Z,67.48
2023-02-18T12:48:57.036Z,69.71
2023-02-18T12:49:57.146Z,67.27
2023-02-18T12:50:57.027Z,70.18
2023-02-18T12:51:57.063Z,67.89
2023-02-18T12:52:57.090Z,67.26
2023-02-18T12:53:57.095Z,66.78
2023-02-18T12:54:57.009Z,64.59
2023-02-18T12:55:57.003Z,66.14
2023-02-18T12:56:57.028Z,70.60
2023-02-18T12:57:57.051Z,65.26
2023-02-18T12:58:56.981Z,65.84
2023-02-18T12:59:56.975Z,69.40
2023-02-18T13:00:56.957Z,68.83
2023-02-18T13:01:57.036Z,61.72
2023-02-18T13:02:56.996Z,66.42
2023-02-18T13:03:56.994Z,67.17
2023-02-18T13:04:57.897Z,65.03
2023-02-18T13:05:56.900Z,62.67
2023-02-18T13:06:56.921Z,65.83
2023-02-18T13:07:56.916Z,63.12
2023-02-18T13:08:56.892Z,68.71
2023-02-18T13:09:56.887Z,63.90
2023-02-18T13:10:56.862Z,69.08
2023-02-18T13:11:56.850Z,65.84
2023-02-18T13:12:56.885Z,69.28
2023-02-18T13:13:57.009Z,66.93
2023-02-18T13:14:56.880Z,67.03